Time;durP1;ratioP1;P1;durP2;ratioP2;P2;SDS_P1;SDS_P2;PMS_P1;PMS_P2;Temp;Humidity;BMP_temperature;BMP_pressure;BME280_temperature;BME280_humidity;BME280_pressure;Samples;Min_cycle;Max_cycle;Signal;HPM_P1;HPM_P2
2023/12/16 00:02:04;;;;;;;10.32;3.30;;;10.20;76.60;;;;;;5056557;28;20029;-74
2023/12/16 00:04:30;;;;;;;5.93;2.60;;;10.20;76.40;;;;;;5048859;28;20032;-74
2023/12/16 00:06:55;;;;;;;7.00;3.42;;;10.20;76.40;;;;;;5052138;28;20032;-74
2023/12/16 00:09:21;;;;;;;5.80;3.15;;;10.20;76.30;;;;;;5051131;28;20128;-73
2023/12/16 00:11:47;;;;;;;12.48;3.80;;;10.20;76.40;;;;;;5036924;28;20400;-62
2023/12/16 00:14:12;;;;;;;12.13;4.68;;;10.20;76.30;;;;;;5043688;28;20036;-73
2023/12/16 00:16:46;;;;;;;6.68;3.80;;;10.20;76.20;;;;;;5041769;28;20399;-74
2023/12/16 00:19:12;;;;;;;18.00;6.05;;;10.20;76.30;;;;;;5040869;28;20038;-74
2023/12/16 00:21:37;;;;;;;9.13;5.00;;;10.10;76.00;;;;;;5044642;28;20033;-74
2023/12/16 00:24:06;;;;;;;9.68;3.95;;;10.10;75.60;;;;;;5046258;28;20029;-74
2023/12/16 00:26:32;;;;;;;11.30;4.50;;;10.00;75.60;;;;;;5043902;28;20029;-74
2023/12/16 00:28:58;;;;;;;6.82;3.47;;;10.00;75.80;;;;;;5038546;28;20021;-62
2023/12/16 00:31:24;;;;;;;7.32;3.85;;;10.10;75.80;;;;;;5042480;28;20140;-62
2023/12/16 00:33:49;;;;;;;20.65;4.03;;;10.10;75.70;;;;;;5047617;28;20463;-62
2023/12/16 00:36:15;;;;;;;5.85;3.20;;;10.00;75.40;;;;;;5047601;28;20025;-62
2023/12/16 00:38:41;;;;;;;8.10;3.42;;;10.10;75.70;;;;;;5042932;28;20120;-62
2023/12/16 00:41:07;;;;;;;8.75;3.10;;;10.10;75.70;;;;;;5039163;28;20547;-62
2023/12/16 00:43:33;;;;;;;9.27;4.00;;;10.10;75.30;;;;;;5050296;28;20575;-62
2023/12/16 00:45:59;;;;;;;4.90;2.40;;;10.10;75.20;;;;;;5045161;28;20128;-62
2023/12/16 00:48:24;;;;;;;4.35;2.38;;;10.10;75.20;;;;;;5041132;28;20040;-62
2023/12/16 00:50:50;;;;;;;5.25;3.15;;;10.10;75.30;;;;;;5044368;28;20063;-62
2023/12/16 00:53:16;;;;;;;10.02;3.03;;;10.10;75.30;;;;;;5041719;28;20456;-74
2023/12/16 00:55:42;;;;;;;3.25;2.30;;;10.20;75.10;;;;;;5049044;28;20025;-74
2023/12/16 00:58:08;;;;;;;5.15;1.77;;;10.20;75.20;;;;;;5048782;28;20105;-73
2023/12/16 01:00:34;;;;;;;5.03;2.58;;;10.20;75.30;;;;;;5043248;28;20064;-62
2023/12/16 01:03:00;;;;;;;5.65;2.13;;;10.20;75.10;;;;;;5037349;28;20033;-62
2023/12/16 01:05:26;;;;;;;5.43;2.83;;;10.20;75.10;;;;;;5023390;28;20405;-74
2023/12/16 01:07:52;;;;;;;7.20;2.65;;;10.20;75.10;;;;;;5041620;28;20028;-74
2023/12/16 01:10:18;;;;;;;4.95;2.90;;;10.10;75.00;;;;;;5043383;28;20075;-74
2023/12/16 01:12:45;;;;;;;4.85;2.25;;;10.10;75.00;;;;;;5045952;28;20056;-73
2023/12/16 01:15:11;;;;;;;10.98;2.47;;;10.10;74.90;;;;;;5038503;28;20511;-74
2023/12/16 01:17:37;;;;;;;5.65;1.73;;;10.10;75.00;;;;;;5049794;28;20032;-74
2023/12/16 01:20:03;;;;;;;2.33;1.10;;;10.10;74.90;;;;;;5048493;28;20052;-62
2023/12/16 01:22:29;;;;;;;2.20;1.33;;;10.10;75.00;;;;;;5039972;28;20029;-63
2023/12/16 01:24:55;;;;;;;3.42;1.08;;;10.10;75.00;;;;;;5043743;28;20545;-62
2023/12/16 01:27:21;;;;;;;2.67;1.40;;;10.10;75.00;;;;;;5047471;28;20063;-62
2023/12/16 01:29:46;;;;;;;3.13;1.40;;;10.10;75.00;;;;;;5053619;28;20029;-74
2023/12/16 01:32:12;;;;;;;3.17;1.05;;;10.10;74.90;;;;;;5051885;28;20021;-73
2023/12/16 01:34:38;;;;;;;2.75;1.27;;;10.10;75.00;;;;;;5051007;28;20025;-62
2023/12/16 01:37:04;;;;;;;15.18;2.03;;;10.10;74.90;;;;;;5052686;28;20116;-62
2023/12/16 01:39:29;;;;;;;6.13;1.52;;;10.10;74.70;;;;;;5043594;28;20488;-62
2023/12/16 01:41:55;;;;;;;6.13;1.92;;;10.10;74.90;;;;;;5049166;28;20019;-62
2023/12/16 01:44:21;;;;;;;6.82;1.30;;;10.10;74.90;;;;;;5051347;28;20040;-61
2023/12/16 01:46:47;;;;;;;3.60;1.30;;;10.10;74.80;;;;;;5053845;28;20086;-61
2023/12/16 01:49:13;;;;;;;5.97;1.50;;;10.10;74.90;;;;;;5048233;28;20033;-61
2023/12/16 01:51:39;;;;;;;3.85;1.77;;;10.10;74.90;;;;;;5052889;28;20075;-61
2023/12/16 01:54:06;;;;;;;2.22;1.15;;;10.10;75.00;;;;;;5046727;28;20039;-61
2023/12/16 01:56:32;;;;;;;2.20;1.50;;;10.00;74.90;;;;;;5045726;28;20087;-61
2023/12/16 01:58:58;;;;;;;1.73;1.25;;;10.00;75.00;;;;;;5051972;28;20025;-61
2023/12/16 02:01:24;;;;;;;2.83;1.75;;;10.00;74.90;;;;;;5050077;28;20048;-61
2023/12/16 02:03:50;;;;;;;5.18;1.42;;;10.00;75.00;;;;;;5051975;28;20039;-61
2023/12/16 02:06:17;;;;;;;2.85;1.15;;;10.00;75.00;;;;;;5047261;28;20033;-61
2023/12/16 02:08:43;;;;;;;2.45;1.25;;;10.00;75.00;;;;;;5050917;28;20033;-61
2023/12/16 02:11:10;;;;;;;2.08;1.58;;;10.00;75.00;;;;;;5047148;28;20049;-61
2023/12/16 02:13:36;;;;;;;2.60;1.00;;;10.00;74.90;;;;;;5045858;28;20029;-72
2023/12/16 02:16:03;;;;;;;2.92;1.42;;;10.00;75.00;;;;;;5043843;28;20057;-73
2023/12/16 02:18:28;;;;;;;5.63;1.50;;;10.00;74.90;;;;;;5039968;28;20112;-72
2023/12/16 02:20:54;;;;;;;3.20;1.10;;;10.00;74.90;;;;;;5049978;28;20112;-72
2023/12/16 02:23:20;;;;;;;2.78;0.98;;;10.00;74.90;;;;;;5048264;28;21348;-72
2023/12/16 02:25:45;;;;;;;5.90;1.60;;;10.00;74.90;;;;;;5045554;28;20034;-73
2023/12/16 02:28:11;;;;;;;3.05;0.90;;;10.00;75.00;;;;;;5048097;28;20048;-61
2023/12/16 02:30:37;;;;;;;5.72;1.88;;;10.00;75.00;;;;;;5049380;28;20044;-61
2023/12/16 02:33:03;;;;;;;5.05;1.00;;;10.00;75.00;;;;;;5049077;28;20497;-72
2023/12/16 02:35:29;;;;;;;7.80;2.28;;;9.90;75.00;;;;;;5048548;28;20387;-61
2023/12/16 02:37:55;;;;;;;5.57;1.25;;;9.90;75.00;;;;;;5051842;28;20050;-72
2023/12/16 02:40:20;;;;;;;4.38;1.55;;;9.90;75.00;;;;;;5049454;28;20319;-61
2023/12/16 02:42:46;;;;;;;1.55;0.80;;;9.80;74.90;;;;;;5046783;28;20163;-72
2023/12/16 02:45:12;;;;;;;2.35;1.48;;;9.80;75.00;;;;;;5047649;28;20045;-72
2023/12/16 02:47:37;;;;;;;3.08;1.58;;;9.70;75.10;;;;;;5046351;28;20415;-72
2023/12/16 02:50:06;;;;;;;3.35;1.35;;;9.70;75.20;;;;;;5048192;28;20029;-61
2023/12/16 02:52:32;;;;;;;2.05;1.08;;;9.70;75.30;;;;;;5048480;28;20049;-61
2023/12/16 02:54:57;;;;;;;2.47;1.65;;;9.70;75.40;;;;;;5054728;28;20029;-61
2023/12/16 02:57:23;;;;;;;1.90;1.48;;;9.70;75.20;;;;;;5046088;28;20025;-63
2023/12/16 02:59:49;;;;;;;2.65;1.50;;;9.70;75.40;;;;;;5056964;28;20028;-73
2023/12/16 03:02:15;;;;;;;6.13;1.20;;;9.70;75.30;;;;;;5037665;28;20044;-61
2023/12/16 03:04:40;;;;;;;1.10;0.90;;;9.70;75.40;;;;;;5051135;28;20025;-62
2023/12/16 03:07:06;;;;;;;4.00;1.23;;;9.70;75.40;;;;;;5053932;28;20032;-61
2023/12/16 03:09:32;;;;;;;3.70;1.45;;;9.60;75.40;;;;;;5049086;28;20088;-73
2023/12/16 03:12:00;;;;;;;2.33;1.52;;;9.60;75.40;;;;;;5060808;28;20104;-73
2023/12/16 03:14:26;;;;;;;6.25;1.67;;;9.50;75.50;;;;;;5057837;28;20051;-61
2023/12/16 03:16:52;;;;;;;5.18;0.93;;;9.50;75.50;;;;;;5056087;28;20035;-61
2023/12/16 03:19:17;;;;;;;2.22;1.45;;;9.50;75.50;;;;;;5060699;28;20028;-61
2023/12/16 03:21:43;;;;;;;8.80;2.30;;;9.50;75.70;;;;;;5057804;28;20053;-61
2023/12/16 03:24:09;;;;;;;2.08;1.45;;;9.40;75.70;;;;;;5056725;28;20033;-61
2023/12/16 03:26:35;;;;;;;5.80;2.03;;;9.40;75.80;;;;;;5058903;28;20047;-61
2023/12/16 03:29:01;;;;;;;8.93;2.30;;;9.30;75.80;;;;;;5052487;28;20071;-72
2023/12/16 03:31:27;;;;;;;2.75;1.90;;;9.30;75.80;;;;;;5051489;28;20083;-61
2023/12/16 03:33:53;;;;;;;4.47;2.25;;;9.20;75.90;;;;;;5061214;28;20035;-61
2023/12/16 03:36:19;;;;;;;12.07;2.78;;;9.20;76.00;;;;;;5052408;28;20025;-72
2023/12/16 03:38:45;;;;;;;6.65;2.33;;;9.20;76.00;;;;;;5053461;28;20036;-61
2023/12/16 03:41:12;;;;;;;5.55;2.75;;;9.20;76.10;;;;;;5053031;28;20036;-73
2023/12/16 03:43:37;;;;;;;2.60;1.50;;;9.20;76.00;;;;;;5054984;28;20032;-73
2023/12/16 03:46:03;;;;;;;7.32;1.70;;;9.20;76.60;;;;;;5054954;28;20037;-73
2023/12/16 03:48:30;;;;;;;5.05;2.25;;;9.20;76.10;;;;;;5047308;28;20039;-73
2023/12/16 03:50:55;;;;;;;5.50;2.80;;;9.20;76.10;;;;;;5055346;28;20047;-73
2023/12/16 03:53:21;;;;;;;1.77;1.40;;;9.20;76.00;;;;;;5052883;28;20453;-73
2023/12/16 03:55:47;;;;;;;7.00;2.20;;;9.20;76.00;;;;;;5044483;28;20033;-61
2023/12/16 03:58:12;;;;;;;5.47;2.38;;;9.20;75.90;;;;;;5041705;28;20083;-61
2023/12/16 04:00:38;;;;;;;3.17;2.13;;;9.20;75.90;;;;;;5053334;28;20419;-61
2023/12/16 04:03:04;;;;;;;4.10;1.70;;;9.20;76.10;;;;;;5047576;28;20028;-61
2023/12/16 04:05:29;;;;;;;3.55;2.03;;;9.20;76.20;;;;;;5055275;28;20079;-73
2023/12/16 04:07:55;;;;;;;7.63;2.42;;;9.20;76.20;;;;;;5050559;28;20025;-61
2023/12/16 04:10:21;;;;;;;3.25;1.50;;;9.20;76.20;;;;;;5051839;28;20747;-61
2023/12/16 04:12:47;;;;;;;7.88;2.15;;;9.20;76.30;;;;;;5046691;28;20029;-61
2023/12/16 04:15:12;;;;;;;5.20;2.35;;;9.20;76.20;;;;;;5054618;28;20025;-61
2023/12/16 04:17:38;;;;;;;5.53;2.22;;;9.20;76.10;;;;;;5051524;28;20024;-61
2023/12/16 04:20:04;;;;;;;3.85;2.05;;;9.20;76.20;;;;;;5053070;28;20436;-73
2023/12/16 04:22:30;;;;;;;4.97;2.10;;;9.20;76.20;;;;;;5052233;28;20503;-73
2023/12/16 04:24:57;;;;;;;4.60;2.28;;;9.20;76.10;;;;;;5054919;28;20036;-73
2023/12/16 04:27:27;;;;;;;7.85;2.35;;;9.30;76.20;;;;;;5050294;28;20044;-73
2023/12/16 04:29:53;;;;;;;6.82;2.30;;;9.30;76.20;;;;;;5046514;28;20029;-73
2023/12/16 04:32:18;;;;;;;5.07;1.85;;;9.30;76.20;;;;;;5049195;28;20033;-73
2023/12/16 04:34:44;;;;;;;6.50;2.58;;;9.30;76.20;;;;;;5053614;28;20021;-61
2023/12/16 04:37:10;;;;;;;3.97;1.88;;;9.30;76.10;;;;;;5054685;28;20432;-61
2023/12/16 04:39:37;;;;;;;4.28;1.65;;;9.30;76.20;;;;;;5049992;28;20029;-73
2023/12/16 04:42:03;;;;;;;7.25;2.70;;;9.30;76.20;;;;;;5048652;28;20032;-73
2023/12/16 04:44:29;;;;;;;5.32;1.67;;;9.40;76.20;;;;;;5050162;28;20028;-73
2023/12/16 04:46:55;;;;;;;4.22;2.50;;;9.40;76.20;;;;;;5026795;28;20025;-61
2023/12/16 04:49:21;;;;;;;4.22;2.17;;;9.30;76.00;;;;;;5053344;28;20110;-61
2023/12/16 04:51:46;;;;;;;5.78;1.80;;;9.30;76.20;;;;;;5050391;28;20025;-73
2023/12/16 04:54:12;;;;;;;3.58;1.85;;;9.30;76.30;;;;;;5043386;28;20037;-61
2023/12/16 04:56:38;;;;;;;8.25;3.25;;;9.30;76.30;;;;;;5049789;28;20426;-73
2023/12/16 04:59:03;;;;;;;3.30;1.42;;;9.20;76.30;;;;;;5055899;28;20025;-73
2023/12/16 05:01:29;;;;;;;4.88;2.30;;;9.20;76.50;;;;;;5041106;28;20033;-73
2023/12/16 05:03:55;;;;;;;3.50;2.20;;;9.20;76.50;;;;;;5045503;28;20070;-73
2023/12/16 05:06:21;;;;;;;5.32;1.95;;;9.20;76.50;;;;;;5057069;28;20597;-61
2023/12/16 05:08:47;;;;;;;8.85;2.17;;;9.20;77.20;;;;;;5054135;28;20037;-72
2023/12/16 05:11:13;;;;;;;4.85;1.50;;;9.20;76.70;;;;;;5064013;28;20052;-73
2023/12/16 05:13:38;;;;;;;3.55;2.13;;;9.10;76.70;;;;;;5044240;28;20388;-62
2023/12/16 05:16:05;;;;;;;21.98;2.58;;;9.10;76.90;;;;;;5045748;28;20017;-61
2023/12/16 05:18:30;;;;;;;10.48;2.38;;;9.10;77.20;;;;;;5046443;28;20034;-73
2023/12/16 05:20:56;;;;;;;7.68;3.03;;;9.00;77.40;;;;;;5053067;28;20039;-73
2023/12/16 05:23:22;;;;;;;4.65;2.28;;;9.00;77.50;;;;;;5045991;28;20112;-73
2023/12/16 05:25:47;;;;;;;5.43;1.88;;;9.00;77.60;;;;;;5050504;28;20048;-61
2023/12/16 05:28:13;;;;;;;10.50;2.92;;;9.00;78.30;;;;;;5047505;28;20044;-74
2023/12/16 05:30:39;;;;;;;5.18;1.90;;;9.00;77.80;;;;;;5045793;28;20392;-61
2023/12/16 05:33:05;;;;;;;7.18;2.85;;;8.90;77.80;;;;;;5051417;28;20400;-61
2023/12/16 05:35:31;;;;;;;4.15;2.05;;;9.00;78.00;;;;;;5053501;28;20500;-61
2023/12/16 05:37:57;;;;;;;2.85;2.17;;;8.90;78.10;;;;;;5047850;28;20100;-61
2023/12/16 05:40:23;;;;;;;4.35;1.70;;;8.90;78.20;;;;;;5050104;28;20157;-61
2023/12/16 05:42:49;;;;;;;6.50;1.80;;;8.90;78.20;;;;;;5057197;28;20605;-73
2023/12/16 05:45:15;;;;;;;5.78;2.28;;;8.90;78.60;;;;;;5053716;28;20123;-73
2023/12/16 05:47:40;;;;;;;7.13;1.98;;;8.90;78.70;;;;;;5051028;28;20099;-73
2023/12/16 05:50:08;;;;;;;4.30;2.13;;;8.80;78.70;;;;;;5042638;28;20511;-73
2023/12/16 05:52:36;;;;;;;3.45;2.13;;;8.80;78.80;;;;;;5037218;28;20143;-73
2023/12/16 05:55:02;;;;;;;5.32;2.10;;;8.80;78.90;;;;;;5046436;28;20036;-73
2023/12/16 05:57:28;;;;;;;2.92;1.98;;;8.80;78.90;;;;;;5051838;28;20028;-72
2023/12/16 05:59:54;;;;;;;4.60;2.22;;;8.80;79.00;;;;;;5042972;28;20033;-62
2023/12/16 06:02:19;;;;;;;10.07;1.90;;;8.90;79.00;;;;;;5043776;28;20437;-61
2023/12/16 06:04:45;;;;;;;5.72;3.33;;;8.90;79.20;;;;;;5055246;28;20033;-61
2023/12/16 06:07:11;;;;;;;5.68;2.95;;;8.80;79.30;;;;;;5056371;28;20484;-72
2023/12/16 06:09:36;;;;;;;6.75;2.60;;;8.80;79.20;;;;;;5056386;28;20033;-61
2023/12/16 06:12:02;;;;;;;9.48;2.58;;;8.80;79.20;;;;;;5044110;28;20045;-62
2023/12/16 06:14:28;;;;;;;7.90;2.03;;;8.80;79.30;;;;;;5055279;28;20012;-62
2023/12/16 06:16:54;;;;;;;4.68;2.20;;;8.80;79.40;;;;;;5047849;28;20036;-73
2023/12/16 06:19:19;;;;;;;7.25;2.80;;;8.80;79.50;;;;;;5056472;28;20447;-61
2023/12/16 06:21:45;;;;;;;3.92;2.10;;;8.80;79.50;;;;;;5049538;28;20040;-61
2023/12/16 06:24:11;;;;;;;5.40;2.60;;;8.80;79.60;;;;;;5050955;28;20037;-61
2023/12/16 06:26:37;;;;;;;4.75;2.42;;;8.80;79.70;;;;;;5051830;28;20021;-73
2023/12/16 06:29:02;;;;;;;1.67;1.55;;;8.80;79.70;;;;;;5046470;28;20073;-61
2023/12/16 06:31:28;;;;;;;6.03;1.80;;;8.80;79.80;;;;;;5050195;28;20067;-61
2023/12/16 06:33:54;;;;;;;5.00;2.15;;;8.80;79.80;;;;;;5047896;28;20108;-61
2023/12/16 06:36:19;;;;;;;3.55;1.38;;;8.80;80.40;;;;;;5050388;28;20392;-61
2023/12/16 06:38:45;;;;;;;6.97;2.70;;;8.80;79.90;;;;;;5053243;28;21283;-61
2023/12/16 06:41:11;;;;;;;4.40;2.97;;;8.80;80.00;;;;;;5051346;28;20041;-61
2023/12/16 06:43:36;;;;;;;4.32;2.65;;;8.80;80.20;;;;;;5057422;28;20048;-61
2023/12/16 06:46:02;;;;;;;7.88;2.33;;;8.80;80.20;;;;;;5055405;28;20074;-61
2023/12/16 06:48:28;;;;;;;5.80;2.08;;;8.80;80.30;;;;;;5050990;28;20097;-61
2023/12/16 06:50:57;;;;;;;4.88;2.03;;;8.80;80.20;;;;;;5048468;28;20043;-61
2023/12/16 06:53:23;;;;;;;7.53;2.38;;;8.80;80.10;;;;;;5046424;28;20551;-61
2023/12/16 06:55:49;;;;;;;6.32;2.85;;;8.70;80.20;;;;;;5051367;28;20051;-61
2023/12/16 06:58:14;;;;;;;2.45;1.70;;;8.70;80.40;;;;;;5051762;28;20052;-61
2023/12/16 07:00:40;;;;;;;3.15;2.28;;;8.70;80.50;;;;;;5052830;28;20082;-61
2023/12/16 07:03:06;;;;;;;4.25;2.17;;;8.70;80.60;;;;;;5041465;28;20045;-61
2023/12/16 07:05:34;;;;;;;2.13;1.83;;;8.70;80.60;;;;;;5047686;28;20097;-61
2023/12/16 07:08:00;;;;;;;4.53;1.90;;;8.60;80.60;;;;;;5041981;28;20024;-72
2023/12/16 07:10:26;;;;;;;6.75;1.83;;;8.60;80.60;;;;;;5052865;28;20072;-72
2023/12/16 07:12:51;;;;;;;6.55;2.35;;;8.70;80.60;;;;;;5048578;28;20037;-73
2023/12/16 07:15:19;;;;;;;7.18;1.95;;;8.70;80.50;;;;;;5050769;28;20460;-73
2023/12/16 07:17:45;;;;;;;9.55;2.30;;;8.70;80.50;;;;;;5043496;28;20033;-73
2023/12/16 07:20:11;;;;;;;6.82;2.35;;;8.70;80.50;;;;;;5052507;28;20095;-72
2023/12/16 07:22:36;;;;;;;7.13;2.20;;;8.70;80.60;;;;;;5050605;28;20029;-72
2023/12/16 07:25:02;;;;;;;8.20;2.45;;;8.70;80.70;;;;;;5051446;28;20033;-72
2023/12/16 07:27:28;;;;;;;2.97;1.95;;;8.70;80.70;;;;;;5057184;28;20012;-73
2023/12/16 07:29:53;;;;;;;6.68;2.25;;;8.60;80.80;;;;;;5051591;28;20034;-73
2023/12/16 07:32:19;;;;;;;6.22;2.75;;;8.60;80.80;;;;;;5055708;28;20025;-72
2023/12/16 07:34:45;;;;;;;8.05;2.45;;;8.60;80.90;;;;;;5061413;28;20032;-72
2023/12/16 07:37:10;;;;;;;9.98;2.53;;;8.60;81.00;;;;;;5046457;28;20033;-61
2023/12/16 07:39:36;;;;;;;7.85;2.70;;;8.60;81.00;;;;;;5053741;28;20104;-61
2023/12/16 07:42:02;;;;;;;7.47;2.42;;;8.60;81.10;;;;;;5049096;28;20083;-73
2023/12/16 07:44:28;;;;;;;4.07;2.08;;;8.60;81.10;;;;;;5048503;28;20017;-73
2023/12/16 07:46:54;;;;;;;3.95;2.15;;;8.60;81.10;;;;;;5055166;28;20025;-72
2023/12/16 07:49:24;;;;;;;5.00;2.80;;;8.60;81.10;;;;;;5052255;28;20067;-72
2023/12/16 07:51:54;;;;;;;5.82;2.72;;;8.70;81.10;;;;;;5054326;28;20033;-72
2023/12/16 07:54:22;;;;;;;6.00;2.47;;;8.70;80.90;;;;;;5048093;28;20040;-72
2023/12/16 07:56:48;;;;;;;3.20;1.48;;;8.70;80.80;;;;;;5060373;28;20028;-72
2023/12/16 07:59:13;;;;;;;4.03;2.50;;;8.70;80.80;;;;;;5049992;28;20021;-72
2023/12/16 08:01:39;;;;;;;3.42;2.00;;;8.70;80.80;;;;;;5058971;28;20032;-72
2023/12/16 08:04:05;;;;;;;5.65;2.40;;;8.70;80.80;;;;;;5055085;28;20036;-72
2023/12/16 08:06:31;;;;;;;3.83;1.60;;;8.70;80.80;;;;;;5052104;28;20366;-72
2023/12/16 08:08:56;;;;;;;1.85;1.42;;;8.80;80.90;;;;;;5051323;28;20021;-72
2023/12/16 08:11:22;;;;;;;3.70;1.65;;;8.70;80.80;;;;;;5051661;28;20496;-61
2023/12/16 08:13:48;;;;;;;2.70;1.55;;;8.70;80.90;;;;;;5054243;28;20419;-60
2023/12/16 08:16:13;;;;;;;4.97;2.00;;;8.80;80.90;;;;;;5061285;28;20137;-61
2023/12/16 08:18:40;;;;;;;5.05;2.35;;;8.80;80.80;;;;;;5059616;28;20435;-63
2023/12/16 08:21:05;;;;;;;3.42;1.65;;;8.80;80.80;;;;;;5050950;28;20037;-63
2023/12/16 08:23:31;;;;;;;6.82;2.05;;;8.80;80.80;;;;;;5052206;28;20037;-61
2023/12/16 08:25:57;;;;;;;8.48;3.50;;;8.80;81.00;;;;;;5050889;28;20033;-60
2023/12/16 08:28:25;;;;;;;8.70;2.67;;;8.80;81.00;;;;;;5047273;28;20029;-61
2023/12/16 08:30:52;;;;;;;5.90;1.88;;;8.80;81.00;;;;;;5056174;28;20064;-61
2023/12/16 08:33:18;;;;;;;4.90;2.40;;;8.90;81.00;;;;;;5051447;28;20050;-60
2023/12/16 08:35:44;;;;;;;2.97;1.85;;;8.90;80.90;;;;;;5051266;28;20028;-60
2023/12/16 08:38:09;;;;;;;8.05;2.03;;;8.90;80.90;;;;;;5050831;28;20037;-63
2023/12/16 08:40:35;;;;;;;11.90;2.67;;;9.00;80.90;;;;;;5049143;28;20029;-61
2023/12/16 08:43:01;;;;;;;10.43;3.17;;;9.00;80.80;;;;;;5055489;28;20041;-60
2023/12/16 08:45:26;;;;;;;8.35;1.85;;;9.00;80.70;;;;;;5051269;28;20395;-60
2023/12/16 08:47:52;;;;;;;11.02;3.08;;;9.10;80.70;;;;;;5050996;28;20114;-59
2023/12/16 08:50:18;;;;;;;2.97;1.77;;;9.20;80.60;;;;;;5052066;28;20033;-59
2023/12/16 08:52:43;;;;;;;8.10;1.90;;;9.20;80.60;;;;;;5049929;28;20033;-59
2023/12/16 08:55:09;;;;;;;3.38;1.92;;;9.30;80.40;;;;;;5050082;28;20029;-59
2023/12/16 08:57:34;;;;;;;6.82;2.53;;;9.40;80.20;;;;;;5058897;28;20368;-60
2023/12/16 09:00:00;;;;;;;10.25;2.20;;;9.50;80.00;;;;;;5051120;28;20040;-59
2023/12/16 09:02:26;;;;;;;9.77;2.20;;;9.50;79.90;;;;;;5045859;28;20392;-59
2023/12/16 09:04:51;;;;;;;13.38;2.17;;;9.60;79.90;;;;;;5054521;28;20075;-59
2023/12/16 09:07:17;;;;;;;3.72;2.28;;;9.60;79.90;;;;;;5057046;28;20491;-59
2023/12/16 09:09:44;;;;;;;8.63;2.35;;;9.60;79.90;;;;;;5051682;28;20439;-59
2023/12/16 09:12:10;;;;;;;5.85;2.13;;;9.60;79.70;;;;;;5054092;28;20095;-59
2023/12/16 09:14:37;;;;;;;5.03;2.42;;;9.70;79.90;;;;;;5053221;28;20071;-59
2023/12/16 09:17:03;;;;;;;6.00;1.73;;;9.70;79.90;;;;;;5056473;28;20107;-59
2023/12/16 09:19:29;;;;;;;6.18;2.20;;;9.70;79.80;;;;;;5046912;28;20112;-60
2023/12/16 09:21:54;;;;;;;3.15;1.98;;;9.70;80.00;;;;;;5052327;28;20029;-59
2023/12/16 09:24:20;;;;;;;6.30;2.10;;;9.60;80.30;;;;;;5047330;28;20032;-70
2023/12/16 09:26:47;;;;;;;5.20;2.20;;;9.70;80.40;;;;;;5057690;28;20553;-69
2023/12/16 09:29:13;;;;;;;5.30;2.75;;;9.70;80.40;;;;;;5052084;28;20059;-69
2023/12/16 09:31:39;;;;;;;7.05;2.30;;;9.70;80.70;;;;;;5054166;28;20076;-68
2023/12/16 09:34:04;;;;;;;10.93;3.20;;;9.70;80.70;;;;;;5049187;28;20064;-68
2023/12/16 09:36:30;;;;;;;6.68;2.75;;;9.70;80.70;;;;;;5049503;28;20063;-68
2023/12/16 09:38:57;;;;;;;5.43;2.33;;;9.70;80.70;;;;;;5054747;28;20109;-70
2023/12/16 09:41:30;;;;;;;5.00;2.72;;;9.80;80.70;;;;;;5048458;28;20565;-69
2023/12/16 09:44:03;;;;;;;4.10;2.17;;;9.80;80.60;;;;;;5059536;28;20033;-70
2023/12/16 09:46:32;;;;;;;;;;;9.80;80.70;;;;;;5049014;28;20036;-71
2023/12/16 09:48:59;;;;;;;4.30;2.70;;;9.80;80.70;;;;;;5051682;28;20318;-60
2023/12/16 09:51:26;;;;;;;8.35;3.05;;;9.80;80.90;;;;;;5053695;28;20053;-71
2023/12/16 09:53:53;;;;;;;7.18;2.47;;;9.70;81.20;;;;;;5043428;28;20496;-69
2023/12/16 09:56:19;;;;;;;5.65;2.10;;;9.70;81.30;;;;;;5052373;28;20374;-59
2023/12/16 09:58:47;;;;;;;8.43;3.53;;;9.70;81.80;;;;;;5047492;28;20020;-69
2023/12/16 10:01:13;;;;;;;6.88;2.90;;;9.70;82.30;;;;;;5053025;28;20041;-71
2023/12/16 10:03:40;;;;;;;7.47;2.70;;;9.70;82.50;;;;;;5046291;28;20037;-69
2023/12/16 10:06:08;;;;;;;13.48;3.67;;;9.70;82.40;;;;;;5038294;28;20144;-70
2023/12/16 10:08:35;;;;;;;9.77;2.72;;;9.70;82.50;;;;;;5046674;28;20033;-69
2023/12/16 10:11:02;;;;;;;7.05;2.88;;;9.80;82.60;;;;;;5051377;28;20048;-70
2023/12/16 10:13:29;;;;;;;7.68;4.38;;;9.70;82.70;;;;;;5049652;28;20022;-70
2023/12/16 10:15:56;;;;;;;7.07;2.88;;;9.70;82.80;;;;;;5035141;28;20147;-60
2023/12/16 10:18:22;;;;;;;9.15;2.67;;;9.80;82.80;;;;;;5047378;28;20032;-59
2023/12/16 10:20:47;;;;;;;10.63;3.08;;;9.80;82.70;;;;;;5041531;28;20488;-67
2023/12/16 10:23:13;;;;;;;7.10;3.10;;;9.90;82.80;;;;;;5051419;28;20033;-68
2023/12/16 10:25:40;;;;;;;9.65;4.10;;;9.90;82.90;;;;;;5056042;28;20043;-70
2023/12/16 10:28:06;;;;;;;7.88;3.15;;;9.90;82.90;;;;;;5041664;28;20020;-71
2023/12/16 10:30:32;;;;;;;9.50;3.88;;;9.90;82.90;;;;;;5041556;28;20495;-72
2023/12/16 10:33:02;;;;;;;7.38;3.33;;;10.00;83.10;;;;;;5046313;28;20055;-70
2023/12/16 10:35:28;;;;;;;7.65;3.33;;;10.00;83.30;;;;;;5049656;28;20491;-72
2023/12/16 10:37:54;;;;;;;11.18;3.53;;;9.90;83.40;;;;;;5051240;28;20025;-72
2023/12/16 10:40:20;;;;;;;8.05;3.22;;;10.00;83.80;;;;;;5051615;28;20043;-71
2023/12/16 10:42:46;;;;;;;9.07;3.85;;;10.00;84.10;;;;;;5042788;28;20103;-72
2023/12/16 10:45:12;;;;;;;8.32;3.83;;;10.00;84.10;;;;;;5044834;28;20392;-72
2023/12/16 10:47:39;;;;;;;5.70;3.03;;;10.00;84.10;;;;;;5054090;28;20033;-70
2023/12/16 10:50:09;;;;;;;9.88;2.90;;;10.10;84.10;;;;;;5044553;28;20041;-71
2023/12/16 10:52:42;;;;;;;20.30;3.30;;;10.10;83.80;;;;;;5048103;28;20032;-72
2023/12/16 10:55:22;;;;;;;7.72;3.60;;;10.20;84.00;;;;;;5047433;28;20029;-71
2023/12/16 10:58:10;;;;;;;9.20;3.70;;;10.20;84.10;;;;;;5047977;28;20025;-71
2023/12/16 11:00:38;;;;;;;13.13;3.25;;;10.20;84.20;;;;;;5043806;28;20040;-70
2023/12/16 11:03:22;;;;;;;8.10;4.05;;;10.30;84.20;;;;;;5046715;28;20083;-70
2023/12/16 11:05:51;;;;;;;7.40;3.85;;;10.30;84.40;;;;;;5046383;28;20033;-71
2023/12/16 11:08:17;;;;;;;5.32;3.30;;;10.30;84.80;;;;;;5055381;28;20029;-72
2023/12/16 11:10:43;;;;;;;6.70;4.43;;;10.30;84.70;;;;;;5046871;28;20160;-72
2023/12/16 11:13:10;;;;;;;18.15;5.90;;;10.30;85.40;;;;;;5049939;28;20064;-71
2023/12/16 11:15:36;;;;;;;14.30;5.10;;;10.20;86.00;;;;;;5045169;28;20021;-71
2023/12/16 11:18:29;;;;;;;6.80;3.92;;;10.20;86.20;;;;;;5045651;28;20025;-61
2023/12/16 11:21:01;;;;;;;8.90;4.70;;;10.30;86.00;;;;;;5046887;28;20048;-62
2023/12/16 11:23:29;;;;;;;9.95;3.50;;;10.20;86.60;;;;;;5048561;28;20112;-61
2023/12/16 11:25:55;;;;;;;12.32;5.07;;;10.20;86.60;;;;;;5055171;28;20041;-62
2023/12/16 11:28:21;;;;;;;9.48;3.88;;;10.30;86.80;;;;;;5046071;28;20032;-62
2023/12/16 11:30:47;;;;;;;7.38;4.43;;;10.30;86.80;;;;;;5051253;28;20033;-70
2023/12/16 11:33:13;;;;;;;10.63;5.20;;;10.30;87.10;;;;;;5046056;28;20420;-71
2023/12/16 11:35:45;;;;;;;9.70;3.58;;;10.30;87.20;;;;;;5038720;28;20072;-71
2023/12/16 11:38:44;;;;;;;6.72;3.03;;;10.30;87.30;;;;;;5056634;28;20460;-70
2023/12/16 11:41:34;;;;;;;13.63;3.70;;;10.30;87.20;;;;;;5049861;28;20028;-69
2023/12/16 11:44:00;;;;;;;9.93;4.55;;;10.30;87.50;;;;;;5049013;28;20063;-69
2023/12/16 11:46:42;;;;;;;8.65;3.83;;;10.20;88.30;;;;;;5040538;28;20029;-70
2023/12/16 11:49:15;;;;;;;9.45;4.25;;;10.20;88.70;;;;;;5043448;28;20044;-71
2023/12/16 11:51:41;;;;;;;6.40;3.88;;;10.20;88.90;;;;;;5042492;28;20491;-72
2023/12/16 11:54:08;;;;;;;13.40;4.15;;;10.20;89.10;;;;;;5041524;28;20026;-72
2023/12/16 11:56:35;;;;;;;9.00;5.03;;;10.20;89.00;;;;;;5045908;28;20025;-71
2023/12/16 11:59:02;;;;;;;9.18;4.45;;;10.20;88.80;;;;;;5048831;28;20017;-61
2023/12/16 12:01:31;;;;;;;12.75;5.70;;;10.30;88.90;;;;;;5052058;28;20029;-61
2023/12/16 12:03:57;;;;;;;8.63;4.15;;;10.30;88.90;;;;;;5048846;28;20025;-72
2023/12/16 12:06:24;;;;;;;11.10;3.58;;;10.20;89.10;;;;;;5050649;28;20029;-71
2023/12/16 12:08:50;;;;;;;9.35;4.47;;;10.20;89.50;;;;;;5039984;28;20139;-71
2023/12/16 12:11:16;;;;;;;16.60;5.85;;;10.20;89.60;;;;;;5046599;28;20408;-59
2023/12/16 12:13:43;;;;;;;13.05;5.15;;;10.30;89.60;;;;;;5042456;28;20124;-60
2023/12/16 12:16:12;;;;;;;8.18;3.92;;;10.20;89.90;;;;;;5046133;28;20032;-69
2023/12/16 12:18:38;;;;;;;11.85;4.45;;;10.20;89.80;;;;;;5045456;28;20012;-68
2023/12/16 12:21:04;;;;;;;8.35;4.10;;;10.20;90.00;;;;;;5052021;28;20028;-70
2023/12/16 12:23:30;;;;;;;11.40;4.63;;;10.20;90.10;;;;;;5051811;28;20480;-59
2023/12/16 12:25:56;;;;;;;8.80;3.80;;;10.20;90.10;;;;;;5040389;28;20029;-70
2023/12/16 12:28:22;;;;;;;13.57;5.82;;;10.20;90.20;;;;;;5051095;28;20044;-70
2023/12/16 12:30:47;;;;;;;8.23;3.20;;;10.20;90.20;;;;;;5039550;28;20039;-70
2023/12/16 12:33:13;;;;;;;6.22;4.30;;;10.20;90.20;;;;;;5041487;28;20028;-70
2023/12/16 12:35:39;;;;;;;7.97;3.95;;;10.20;90.20;;;;;;5049650;28;20029;-70
2023/12/16 12:38:05;;;;;;;7.07;3.47;;;10.30;90.20;;;;;;5040256;28;20023;-70
2023/12/16 12:40:30;;;;;;;9.73;4.03;;;10.30;90.30;;;;;;5049490;28;20079;-70
2023/12/16 12:42:58;;;;;;;5.88;3.22;;;10.20;90.20;;;;;;5042555;28;20033;-70
2023/12/16 12:45:30;;;;;;;8.13;3.63;;;10.20;90.30;;;;;;5056262;28;20032;-70
2023/12/16 12:48:12;;;;;;;6.57;3.92;;;10.30;90.30;;;;;;5057594;28;20440;-59
2023/12/16 12:50:38;;;;;;;8.27;3.47;;;10.30;90.30;;;;;;5045754;28;20029;-59